sensor_id;sensor_type;location;lat;lon;timestamp;P1;durP1;ratioP1;P2;durP2;ratioP2
26375;SDS011;30544;42.196;24.336;2022-09-09T00:01:59;21.83;;;16.00;;
26375;SDS011;30544;42.196;24.336;2022-09-09T00:04:28;20.05;;;15.23;;
26375;SDS011;30544;42.196;24.336;2022-09-09T00:07:00;21.42;;;15.82;;
26375;SDS011;30544;42.196;24.336;2022-09-09T00:09:34;17.45;;;14.95;;
26375;SDS011;30544;42.196;24.336;2022-09-09T00:12:10;20.67;;;15.55;;
26375;SDS011;30544;42.196;24.336;2022-09-09T00:14:41;24.30;;;14.07;;
26375;SDS011;30544;42.196;24.336;2022-09-09T00:17:18;16.35;;;13.75;;
26375;SDS011;30544;42.196;24.336;2022-09-09T00:19:56;16.30;;;14.57;;
26375;SDS011;30544;42.196;24.336;2022-09-09T00:22:29;20.35;;;15.45;;
26375;SDS011;30544;42.196;24.336;2022-09-09T00:24:58;19.77;;;14.27;;
26375;SDS011;30544;42.196;24.336;2022-09-09T00:27:39;19.88;;;14.75;;
26375;SDS011;30544;42.196;24.336;2022-09-09T00:30:13;16.17;;;14.55;;
26375;SDS011;30544;42.196;24.336;2022-09-09T00:32:44;15.43;;;13.77;;
26375;SDS011;30544;42.196;24.336;2022-09-09T00:35:14;15.75;;;14.15;;
26375;SDS011;30544;42.196;24.336;2022-09-09T00:37:44;18.60;;;14.77;;
26375;SDS011;30544;42.196;24.336;2022-09-09T00:40:18;18.60;;;13.93;;
26375;SDS011;30544;42.196;24.336;2022-09-09T00:42:54;22.77;;;14.98;;
26375;SDS011;30544;42.196;24.336;2022-09-09T00:45:47;15.63;;;13.85;;
26375;SDS011;30544;42.196;24.336;2022-09-09T00:48:27;18.90;;;14.15;;
26375;SDS011;30544;42.196;24.336;2022-09-09T00:51:03;19.52;;;14.18;;
26375;SDS011;30544;42.196;24.336;2022-09-09T00:53:51;14.65;;;13.15;;
26375;SDS011;30544;42.196;24.336;2022-09-09T00:56:33;18.30;;;14.40;;
26375;SDS011;30544;42.196;24.336;2022-09-09T00:59:12;17.63;;;14.13;;
26375;SDS011;30544;42.196;24.336;2022-09-09T01:01:51;17.43;;;14.27;;
26375;SDS011;30544;42.196;24.336;2022-09-09T01:04:21;21.90;;;14.95;;
26375;SDS011;30544;42.196;24.336;2022-09-09T01:06:58;21.10;;;15.30;;
26375;SDS011;30544;42.196;24.336;2022-09-09T01:09:37;15.00;;;13.40;;
26375;SDS011;30544;42.196;24.336;2022-09-09T01:12:22;21.35;;;14.85;;
26375;SDS011;30544;42.196;24.336;2022-09-09T01:14:54;19.70;;;14.90;;
26375;SDS011;30544;42.196;24.336;2022-09-09T01:17:30;17.27;;;15.05;;
26375;SDS011;30544;42.196;24.336;2022-09-09T01:20:03;16.70;;;14.82;;
26375;SDS011;30544;42.196;24.336;2022-09-09T01:22:36;17.13;;;15.43;;
26375;SDS011;30544;42.196;24.336;2022-09-09T01:28:31;16.83;;;13.93;;
26375;SDS011;30544;42.196;24.336;2022-09-09T01:31:02;20.75;;;16.08;;
26375;SDS011;30544;42.196;24.336;2022-09-09T01:33:30;19.58;;;16.00;;
26375;SDS011;30544;42.196;24.336;2022-09-09T01:35:57;19.40;;;16.83;;
26375;SDS011;30544;42.196;24.336;2022-09-09T01:38:30;18.00;;;15.85;;
26375;SDS011;30544;42.196;24.336;2022-09-09T01:41:00;17.35;;;15.52;;
26375;SDS011;30544;42.196;24.336;2022-09-09T01:43:27;17.95;;;15.00;;
26375;SDS011;30544;42.196;24.336;2022-09-09T01:45:56;22.17;;;16.00;;
26375;SDS011;30544;42.196;24.336;2022-09-09T01:48:25;19.05;;;15.70;;
26375;SDS011;30544;42.196;24.336;2022-09-09T01:50:53;18.13;;;16.20;;
26375;SDS011;30544;42.196;24.336;2022-09-09T01:53:21;22.08;;;16.00;;
26375;SDS011;30544;42.196;24.336;2022-09-09T01:55:51;21.30;;;16.58;;
26375;SDS011;30544;42.196;24.336;2022-09-09T01:58:28;19.50;;;17.17;;
26375;SDS011;30544;42.196;24.336;2022-09-09T02:01:02;20.05;;;15.40;;
26375;SDS011;30544;42.196;24.336;2022-09-09T02:03:36;22.83;;;17.48;;
26375;SDS011;30544;42.196;24.336;2022-09-09T02:06:05;18.92;;;16.27;;
26375;SDS011;30544;42.196;24.336;2022-09-09T02:08:45;23.05;;;19.30;;
26375;SDS011;30544;42.196;24.336;2022-09-09T02:11:15;20.75;;;18.23;;
26375;SDS011;30544;42.196;24.336;2022-09-09T02:13:46;23.13;;;17.85;;
26375;SDS011;30544;42.196;24.336;2022-09-09T02:16:16;20.38;;;17.60;;
26375;SDS011;30544;42.196;24.336;2022-09-09T02:18:50;25.67;;;19.88;;
26375;SDS011;30544;42.196;24.336;2022-09-09T02:21:20;28.67;;;20.90;;
26375;SDS011;30544;42.196;24.336;2022-09-09T02:23:48;24.77;;;20.88;;
26375;SDS011;30544;42.196;24.336;2022-09-09T02:26:17;29.27;;;22.27;;
26375;SDS011;30544;42.196;24.336;2022-09-09T02:28:48;21.27;;;19.02;;
26375;SDS011;30544;42.196;24.336;2022-09-09T02:31:17;23.67;;;17.95;;
26375;SDS011;30544;42.196;24.336;2022-09-09T02:33:50;21.33;;;17.23;;
26375;SDS011;30544;42.196;24.336;2022-09-09T02:36:20;22.10;;;17.48;;
26375;SDS011;30544;42.196;24.336;2022-09-09T02:38:49;19.92;;;17.42;;
26375;SDS011;30544;42.196;24.336;2022-09-09T02:41:19;19.25;;;17.20;;
26375;SDS011;30544;42.196;24.336;2022-09-09T02:43:51;20.80;;;17.92;;
26375;SDS011;30544;42.196;24.336;2022-09-09T02:46:24;19.63;;;17.45;;
26375;SDS011;30544;42.196;24.336;2022-09-09T02:49:04;19.00;;;16.67;;
26375;SDS011;30544;42.196;24.336;2022-09-09T02:51:37;19.05;;;16.98;;
26375;SDS011;30544;42.196;24.336;2022-09-09T02:54:15;23.10;;;18.33;;
26375;SDS011;30544;42.196;24.336;2022-09-09T02:56:48;21.80;;;18.27;;
26375;SDS011;30544;42.196;24.336;2022-09-09T02:59:20;24.17;;;17.48;;
26375;SDS011;30544;42.196;24.336;2022-09-09T03:01:49;20.67;;;17.38;;
26375;SDS011;30544;42.196;24.336;2022-09-09T03:04:15;23.00;;;17.23;;
26375;SDS011;30544;42.196;24.336;2022-09-09T03:06:42;21.60;;;17.85;;
26375;SDS011;30544;42.196;24.336;2022-09-09T03:09:09;25.08;;;17.15;;
26375;SDS011;30544;42.196;24.336;2022-09-09T03:11:36;18.90;;;16.17;;
26375;SDS011;30544;42.196;24.336;2022-09-09T03:14:03;18.40;;;16.42;;
26375;SDS011;30544;42.196;24.336;2022-09-09T03:16:32;21.40;;;16.83;;
26375;SDS011;30544;42.196;24.336;2022-09-09T03:18:59;22.25;;;16.58;;
26375;SDS011;30544;42.196;24.336;2022-09-09T03:21:26;28.60;;;16.85;;
26375;SDS011;30544;42.196;24.336;2022-09-09T03:23:53;18.60;;;15.93;;
26375;SDS011;30544;42.196;24.336;2022-09-09T03:26:19;22.85;;;16.58;;
26375;SDS011;30544;42.196;24.336;2022-09-09T03:28:46;21.13;;;15.60;;
26375;SDS011;30544;42.196;24.336;2022-09-09T03:31:16;19.27;;;15.63;;
26375;SDS011;30544;42.196;24.336;2022-09-09T03:33:45;32.38;;;16.20;;
26375;SDS011;30544;42.196;24.336;2022-09-09T03:36:12;30.45;;;16.83;;
26375;SDS011;30544;42.196;24.336;2022-09-09T03:38:40;23.50;;;14.90;;
26375;SDS011;30544;42.196;24.336;2022-09-09T03:41:06;20.77;;;15.02;;
26375;SDS011;30544;42.196;24.336;2022-09-09T03:43:34;21.90;;;16.05;;
26375;SDS011;30544;42.196;24.336;2022-09-09T03:46:01;22.15;;;15.43;;
26375;SDS011;30544;42.196;24.336;2022-09-09T03:48:28;21.48;;;16.95;;
26375;SDS011;30544;42.196;24.336;2022-09-09T03:50:56;29.20;;;17.50;;
26375;SDS011;30544;42.196;24.336;2022-09-09T03:53:26;33.53;;;21.98;;
26375;SDS011;30544;42.196;24.336;2022-09-09T03:55:54;31.70;;;20.50;;
26375;SDS011;30544;42.196;24.336;2022-09-09T03:58:25;36.90;;;22.20;;
26375;SDS011;30544;42.196;24.336;2022-09-09T04:00:53;41.13;;;20.42;;
26375;SDS011;30544;42.196;24.336;2022-09-09T04:03:21;35.95;;;22.27;;
26375;SDS011;30544;42.196;24.336;2022-09-09T04:05:49;32.53;;;22.20;;
26375;SDS011;30544;42.196;24.336;2022-09-09T04:08:18;28.58;;;21.23;;
26375;SDS011;30544;42.196;24.336;2022-09-09T04:10:45;31.15;;;21.45;;
26375;SDS011;30544;42.196;24.336;2022-09-09T04:13:13;28.15;;;22.58;;
26375;SDS011;30544;42.196;24.336;2022-09-09T04:15:41;24.88;;;21.05;;
26375;SDS011;30544;42.196;24.336;2022-09-09T04:18:08;27.27;;;20.95;;
26375;SDS011;30544;42.196;24.336;2022-09-09T04:20:36;22.50;;;20.00;;
26375;SDS011;30544;42.196;24.336;2022-09-09T04:23:04;29.70;;;20.48;;
26375;SDS011;30544;42.196;24.336;2022-09-09T04:25:32;26.33;;;20.65;;
26375;SDS011;30544;42.196;24.336;2022-09-09T04:27:59;31.83;;;22.23;;
26375;SDS011;30544;42.196;24.336;2022-09-09T04:30:25;38.95;;;28.10;;
26375;SDS011;30544;42.196;24.336;2022-09-09T04:32:53;30.23;;;18.77;;
26375;SDS011;30544;42.196;24.336;2022-09-09T04:35:20;24.60;;;18.58;;
26375;SDS011;30544;42.196;24.336;2022-09-09T04:37:46;31.10;;;20.20;;
26375;SDS011;30544;42.196;24.336;2022-09-09T04:40:14;104.00;;;46.53;;
26375;SDS011;30544;42.196;24.336;2022-09-09T04:42:42;58.08;;;27.60;;
26375;SDS011;30544;42.196;24.336;2022-09-09T04:45:10;62.28;;;28.00;;
26375;SDS011;30544;42.196;24.336;2022-09-09T04:47:38;140.70;;;54.47;;
26375;SDS011;30544;42.196;24.336;2022-09-09T04:50:06;69.50;;;35.38;;
26375;SDS011;30544;42.196;24.336;2022-09-09T04:52:33;47.90;;;26.40;;
26375;SDS011;30544;42.196;24.336;2022-09-09T04:55:00;57.33;;;29.25;;
26375;SDS011;30544;42.196;24.336;2022-09-09T04:57:27;72.50;;;36.08;;
26375;SDS011;30544;42.196;24.336;2022-09-09T04:59:58;88.05;;;39.78;;
26375;SDS011;30544;42.196;24.336;2022-09-09T05:02:25;95.57;;;43.78;;
26375;SDS011;30544;42.196;24.336;2022-09-09T05:04:51;27.17;;;18.25;;
26375;SDS011;30544;42.196;24.336;2022-09-09T05:07:19;96.13;;;44.40;;
26375;SDS011;30544;42.196;24.336;2022-09-09T05:09:46;37.33;;;22.00;;
26375;SDS011;30544;42.196;24.336;2022-09-09T05:12:14;38.75;;;23.23;;
26375;SDS011;30544;42.196;24.336;2022-09-09T05:14:41;30.38;;;18.38;;
26375;SDS011;30544;42.196;24.336;2022-09-09T05:17:10;38.80;;;19.17;;
26375;SDS011;30544;42.196;24.336;2022-09-09T05:19:36;50.28;;;25.05;;
26375;SDS011;30544;42.196;24.336;2022-09-09T05:22:03;115.68;;;46.55;;
26375;SDS011;30544;42.196;24.336;2022-09-09T05:24:30;48.78;;;23.88;;
26375;SDS011;30544;42.196;24.336;2022-09-09T05:26:58;121.63;;;55.95;;
26375;SDS011;30544;42.196;24.336;2022-09-09T05:29:27;31.52;;;16.73;;
26375;SDS011;30544;42.196;24.336;2022-09-09T05:31:54;34.30;;;17.77;;
26375;SDS011;30544;42.196;24.336;2022-09-09T05:34:22;105.38;;;45.25;;
26375;SDS011;30544;42.196;24.336;2022-09-09T05:36:49;21.42;;;13.93;;
26375;SDS011;30544;42.196;24.336;2022-09-09T05:39:16;78.30;;;40.50;;
26375;SDS011;30544;42.196;24.336;2022-09-09T05:41:42;23.20;;;15.70;;
26375;SDS011;30544;42.196;24.336;2022-09-09T05:44:09;27.52;;;17.10;;
26375;SDS011;30544;42.196;24.336;2022-09-09T05:46:36;23.83;;;12.68;;
26375;SDS011;30544;42.196;24.336;2022-09-09T05:49:03;21.10;;;13.07;;
26375;SDS011;30544;42.196;24.336;2022-09-09T05:51:32;41.50;;;21.08;;
26375;SDS011;30544;42.196;24.336;2022-09-09T05:53:59;15.77;;;10.85;;
26375;SDS011;30544;42.196;24.336;2022-09-09T05:56:27;51.83;;;23.40;;
26375;SDS011;30544;42.196;24.336;2022-09-09T05:58:55;38.50;;;19.10;;
26375;SDS011;30544;42.196;24.336;2022-09-09T06:01:23;66.05;;;28.65;;
26375;SDS011;30544;42.196;24.336;2022-09-09T06:03:52;75.47;;;30.20;;
26375;SDS011;30544;42.196;24.336;2022-09-09T06:06:20;26.50;;;12.30;;
26375;SDS011;30544;42.196;24.336;2022-09-09T06:08:50;31.90;;;16.08;;
26375;SDS011;30544;42.196;24.336;2022-09-09T06:11:18;14.73;;;9.40;;
26375;SDS011;30544;42.196;24.336;2022-09-09T06:13:46;14.63;;;8.05;;
26375;SDS011;30544;42.196;24.336;2022-09-09T06:16:16;12.65;;;7.88;;
26375;SDS011;30544;42.196;24.336;2022-09-09T06:18:44;27.25;;;13.15;;
26375;SDS011;30544;42.196;24.336;2022-09-09T06:21:13;36.78;;;15.82;;
26375;SDS011;30544;42.196;24.336;2022-09-09T06:23:42;28.95;;;14.70;;
26375;SDS011;30544;42.196;24.336;2022-09-09T06:26:11;35.78;;;16.48;;
26375;SDS011;30544;42.196;24.336;2022-09-09T06:28:39;32.47;;;14.88;;
26375;SDS011;30544;42.196;24.336;2022-09-09T06:31:08;9.60;;;6.22;;
26375;SDS011;30544;42.196;24.336;2022-09-09T06:33:37;8.85;;;6.00;;
26375;SDS011;30544;42.196;24.336;2022-09-09T06:36:06;27.05;;;9.20;;
26375;SDS011;30544;42.196;24.336;2022-09-09T06:38:36;10.05;;;6.03;;
26375;SDS011;30544;42.196;24.336;2022-09-09T06:41:04;15.82;;;6.05;;
26375;SDS011;30544;42.196;24.336;2022-09-09T06:43:32;10.23;;;6.32;;
26375;SDS011;30544;42.196;24.336;2022-09-09T06:46:01;11.85;;;6.57;;
26375;SDS011;30544;42.196;24.336;2022-09-09T06:48:31;21.58;;;7.63;;
26375;SDS011;30544;42.196;24.336;2022-09-09T06:51:01;14.30;;;6.72;;
26375;SDS011;30544;42.196;24.336;2022-09-09T06:53:29;16.25;;;7.38;;
26375;SDS011;30544;42.196;24.336;2022-09-09T06:55:58;10.48;;;5.28;;
26375;SDS011;30544;42.196;24.336;2022-09-09T06:58:26;12.40;;;5.20;;
26375;SDS011;30544;42.196;24.336;2022-09-09T07:01:00;13.15;;;4.90;;
26375;SDS011;30544;42.196;24.336;2022-09-09T07:03:28;11.48;;;5.03;;
26375;SDS011;30544;42.196;24.336;2022-09-09T07:05:55;11.32;;;4.53;;
26375;SDS011;30544;42.196;24.336;2022-09-09T07:08:22;7.13;;;4.30;;
26375;SDS011;30544;42.196;24.336;2022-09-09T07:10:50;11.23;;;3.97;;
26375;SDS011;30544;42.196;24.336;2022-09-09T07:13:18;9.38;;;4.03;;
26375;SDS011;30544;42.196;24.336;2022-09-09T07:15:46;7.53;;;4.38;;
26375;SDS011;30544;42.196;24.336;2022-09-09T07:18:14;9.45;;;4.38;;
26375;SDS011;30544;42.196;24.336;2022-09-09T07:20:41;7.78;;;4.22;;
26375;SDS011;30544;42.196;24.336;2022-09-09T07:23:08;6.53;;;3.50;;
26375;SDS011;30544;42.196;24.336;2022-09-09T07:25:35;8.32;;;4.18;;
26375;SDS011;30544;42.196;24.336;2022-09-09T07:28:01;8.05;;;4.45;;
26375;SDS011;30544;42.196;24.336;2022-09-09T07:30:28;6.72;;;3.90;;
26375;SDS011;30544;42.196;24.336;2022-09-09T07:32:55;7.32;;;4.07;;
26375;SDS011;30544;42.196;24.336;2022-09-09T07:35:25;9.57;;;3.80;;
26375;SDS011;30544;42.196;24.336;2022-09-09T07:37:52;7.07;;;3.90;;
26375;SDS011;30544;42.196;24.336;2022-09-09T07:40:19;13.55;;;4.30;;
26375;SDS011;30544;42.196;24.336;2022-09-09T07:42:47;7.72;;;4.10;;
26375;SDS011;30544;42.196;24.336;2022-09-09T07:45:14;9.25;;;3.40;;
26375;SDS011;30544;42.196;24.336;2022-09-09T07:47:41;7.32;;;3.70;;
26375;SDS011;30544;42.196;24.336;2022-09-09T07:50:08;8.35;;;3.83;;
26375;SDS011;30544;42.196;24.336;2022-09-09T07:52:36;19.17;;;5.32;;
26375;SDS011;30544;42.196;24.336;2022-09-09T07:55:03;22.73;;;10.25;;
26375;SDS011;30544;42.196;24.336;2022-09-09T07:57:31;13.02;;;5.35;;
26375;SDS011;30544;42.196;24.336;2022-09-09T07:59:58;9.40;;;3.58;;
26375;SDS011;30544;42.196;24.336;2022-09-09T08:02:24;19.45;;;6.07;;
26375;SDS011;30544;42.196;24.336;2022-09-09T08:04:54;7.20;;;3.60;;
26375;SDS011;30544;42.196;24.336;2022-09-09T08:07:21;17.58;;;5.97;;
26375;SDS011;30544;42.196;24.336;2022-09-09T08:09:49;9.13;;;4.20;;
26375;SDS011;30544;42.196;24.336;2022-09-09T08:12:16;24.40;;;11.43;;
26375;SDS011;30544;42.196;24.336;2022-09-09T08:14:43;23.08;;;8.85;;
26375;SDS011;30544;42.196;24.336;2022-09-09T08:17:10;9.80;;;4.13;;
26375;SDS011;30544;42.196;24.336;2022-09-09T08:19:36;30.27;;;11.18;;
26375;SDS011;30544;42.196;24.336;2022-09-09T08:22:03;12.85;;;4.47;;
26375;SDS011;30544;42.196;24.336;2022-09-09T08:24:30;13.73;;;4.13;;
26375;SDS011;30544;42.196;24.336;2022-09-09T08:26:58;7.15;;;3.08;;
26375;SDS011;30544;42.196;24.336;2022-09-09T08:29:25;20.83;;;9.85;;
26375;SDS011;30544;42.196;24.336;2022-09-09T08:31:53;79.25;;;33.13;;
26375;SDS011;30544;42.196;24.336;2022-09-09T08:34:22;30.33;;;12.55;;
26375;SDS011;30544;42.196;24.336;2022-09-09T08:36:50;13.73;;;4.20;;
26375;SDS011;30544;42.196;24.336;2022-09-09T08:39:18;11.48;;;4.50;;
26375;SDS011;30544;42.196;24.336;2022-09-09T08:41:52;9.00;;;3.88;;
26375;SDS011;30544;42.196;24.336;2022-09-09T08:44:40;5.50;;;3.72;;
26375;SDS011;30544;42.196;24.336;2022-09-09T08:47:16;10.98;;;4.10;;
26375;SDS011;30544;42.196;24.336;2022-09-09T08:49:57;8.48;;;3.92;;
26375;SDS011;30544;42.196;24.336;2022-09-09T08:52:39;9.57;;;4.57;;
26375;SDS011;30544;42.196;24.336;2022-09-09T08:55:15;11.00;;;4.35;;
26375;SDS011;30544;42.196;24.336;2022-09-09T08:57:52;7.00;;;4.15;;
26375;SDS011;30544;42.196;24.336;2022-09-09T09:00:21;12.15;;;5.55;;
26375;SDS011;30544;42.196;24.336;2022-09-09T09:02:53;10.68;;;3.70;;
26375;SDS011;30544;42.196;24.336;2022-09-09T09:05:31;13.52;;;6.57;;
26375;SDS011;30544;42.196;24.336;2022-09-09T09:08:05;18.00;;;7.30;;
26375;SDS011;30544;42.196;24.336;2022-09-09T09:10:43;8.45;;;3.90;;
26375;SDS011;30544;42.196;24.336;2022-09-09T09:13:15;12.60;;;4.53;;
26375;SDS011;30544;42.196;24.336;2022-09-09T09:15:47;39.17;;;17.60;;
26375;SDS011;30544;42.196;24.336;2022-09-09T09:18:18;11.88;;;5.22;;
26375;SDS011;30544;42.196;24.336;2022-09-09T09:20:49;32.17;;;13.00;;
26375;SDS011;30544;42.196;24.336;2022-09-09T09:23:21;10.80;;;4.57;;
26375;SDS011;30544;42.196;24.336;2022-09-09T09:25:50;7.63;;;4.70;;
26375;SDS011;30544;42.196;24.336;2022-09-09T09:28:24;12.27;;;5.13;;
26375;SDS011;30544;42.196;24.336;2022-09-09T09:30:55;8.50;;;4.30;;
26375;SDS011;30544;42.196;24.336;2022-09-09T09:33:27;18.02;;;6.80;;
26375;SDS011;30544;42.196;24.336;2022-09-09T09:36:00;11.88;;;5.28;;
26375;SDS011;30544;42.196;24.336;2022-09-09T09:38:28;16.27;;;4.40;;
26375;SDS011;30544;42.196;24.336;2022-09-09T09:40:55;7.88;;;4.60;;
26375;SDS011;30544;42.196;24.336;2022-09-09T09:43:26;14.18;;;4.57;;
26375;SDS011;30544;42.196;24.336;2022-09-09T09:45:55;11.00;;;4.32;;
26375;SDS011;30544;42.196;24.336;2022-09-09T09:48:23;10.82;;;5.22;;
26375;SDS011;30544;42.196;24.336;2022-09-09T09:50:52;11.85;;;4.82;;
26375;SDS011;30544;42.196;24.336;2022-09-09T09:53:23;10.82;;;5.32;;
26375;SDS011;30544;42.196;24.336;2022-09-09T09:55:53;9.88;;;4.68;;
26375;SDS011;30544;42.196;24.336;2022-09-09T09:58:26;6.57;;;4.40;;
26375;SDS011;30544;42.196;24.336;2022-09-09T10:00:57;8.60;;;5.10;;
26375;SDS011;30544;42.196;24.336;2022-09-09T10:03:25;10.27;;;4.45;;
26375;SDS011;30544;42.196;24.336;2022-09-09T10:05:54;31.38;;;13.05;;
26375;SDS011;30544;42.196;24.336;2022-09-09T10:08:21;10.55;;;5.70;;
26375;SDS011;30544;42.196;24.336;2022-09-09T10:10:51;10.32;;;6.15;;
26375;SDS011;30544;42.196;24.336;2022-09-09T10:13:35;10.75;;;4.72;;
26375;SDS011;30544;42.196;24.336;2022-09-09T10:16:14;10.45;;;5.32;;
26375;SDS011;30544;42.196;24.336;2022-09-09T10:18:52;12.27;;;4.90;;
26375;SDS011;30544;42.196;24.336;2022-09-09T10:21:38;12.18;;;5.15;;
26375;SDS011;30544;42.196;24.336;2022-09-09T10:24:30;8.13;;;4.95;;
26375;SDS011;30544;42.196;24.336;2022-09-09T10:27:18;14.40;;;5.15;;
26375;SDS011;30544;42.196;24.336;2022-09-09T10:29:53;11.13;;;4.75;;
26375;SDS011;30544;42.196;24.336;2022-09-09T10:32:36;9.15;;;4.88;;
26375;SDS011;30544;42.196;24.336;2022-09-09T10:35:10;14.68;;;5.20;;
26375;SDS011;30544;42.196;24.336;2022-09-09T10:37:43;11.88;;;5.55;;
26375;SDS011;30544;42.196;24.336;2022-09-09T10:40:27;12.40;;;6.72;;
26375;SDS011;30544;42.196;24.336;2022-09-09T10:43:02;15.57;;;8.23;;
26375;SDS011;30544;42.196;24.336;2022-09-09T10:45:43;9.75;;;5.63;;
26375;SDS011;30544;42.196;24.336;2022-09-09T10:48:28;8.77;;;4.85;;
26375;SDS011;30544;42.196;24.336;2022-09-09T10:51:09;10.77;;;5.13;;
26375;SDS011;30544;42.196;24.336;2022-09-09T10:53:52;10.15;;;5.28;;
26375;SDS011;30544;42.196;24.336;2022-09-09T10:56:28;9.75;;;4.80;;
26375;SDS011;30544;42.196;24.336;2022-09-09T10:58:58;7.45;;;5.03;;
26375;SDS011;30544;42.196;24.336;2022-09-09T11:01:37;10.48;;;5.25;;
26375;SDS011;30544;42.196;24.336;2022-09-09T11:04:10;7.00;;;4.60;;
26375;SDS011;30544;42.196;24.336;2022-09-09T11:06:44;11.52;;;4.88;;
26375;SDS011;30544;42.196;24.336;2022-09-09T11:09:18;10.65;;;4.93;;
26375;SDS011;30544;42.196;24.336;2022-09-09T11:11:50;9.68;;;5.18;;
26375;SDS011;30544;42.196;24.336;2022-09-09T11:14:20;9.02;;;5.60;;
26375;SDS011;30544;42.196;24.336;2022-09-09T11:16:53;10.43;;;5.30;;
26375;SDS011;30544;42.196;24.336;2022-09-09T11:19:25;9.15;;;5.65;;
26375;SDS011;30544;42.196;24.336;2022-09-09T11:21:57;8.77;;;5.60;;
26375;SDS011;30544;42.196;24.336;2022-09-09T11:24:28;9.52;;;5.03;;
26375;SDS011;30544;42.196;24.336;2022-09-09T11:27:00;10.55;;;5.00;;
26375;SDS011;30544;42.196;24.336;2022-09-09T11:32:32;9.18;;;4.90;;
26375;SDS011;30544;42.196;24.336;2022-09-09T11:35:17;8.52;;;5.38;;
26375;SDS011;30544;42.196;24.336;2022-09-09T11:40:50;9.10;;;5.15;;
26375;SDS011;30544;42.196;24.336;2022-09-09T11:43:23;8.43;;;4.93;;
26375;SDS011;30544;42.196;24.336;2022-09-09T11:45:54;11.85;;;5.35;;
26375;SDS011;30544;42.196;24.336;2022-09-09T11:48:27;9.32;;;5.40;;
26375;SDS011;30544;42.196;24.336;2022-09-09T11:53:26;12.65;;;5.70;;
26375;SDS011;30544;42.196;24.336;2022-09-09T11:56:06;10.15;;;5.07;;
26375;SDS011;30544;42.196;24.336;2022-09-09T11:58:38;12.57;;;5.10;;
26375;SDS011;30544;42.196;24.336;2022-09-09T12:01:14;10.00;;;5.82;;
26375;SDS011;30544;42.196;24.336;2022-09-09T12:03:54;13.70;;;5.43;;
26375;SDS011;30544;42.196;24.336;2022-09-09T12:06:43;9.07;;;5.28;;
26375;SDS011;30544;42.196;24.336;2022-09-09T12:09:17;46.45;;;22.67;;
26375;SDS011;30544;42.196;24.336;2022-09-09T12:11:49;29.60;;;12.70;;
26375;SDS011;30544;42.196;24.336;2022-09-09T12:14:19;10.80;;;5.93;;
26375;SDS011;30544;42.196;24.336;2022-09-09T12:17:08;21.17;;;8.63;;
26375;SDS011;30544;42.196;24.336;2022-09-09T12:19:45;13.25;;;5.63;;
26375;SDS011;30544;42.196;24.336;2022-09-09T12:22:15;21.27;;;10.90;;
26375;SDS011;30544;42.196;24.336;2022-09-09T12:24:52;18.00;;;6.57;;
26375;SDS011;30544;42.196;24.336;2022-09-09T12:27:27;89.72;;;34.70;;
26375;SDS011;30544;42.196;24.336;2022-09-09T12:29:58;63.90;;;25.73;;
26375;SDS011;30544;42.196;24.336;2022-09-09T12:32:31;30.58;;;14.60;;
26375;SDS011;30544;42.196;24.336;2022-09-09T12:34:59;15.32;;;7.13;;
26375;SDS011;30544;42.196;24.336;2022-09-09T12:37:32;21.85;;;9.77;;
26375;SDS011;30544;42.196;24.336;2022-09-09T12:40:02;14.77;;;5.68;;
26375;SDS011;30544;42.196;24.336;2022-09-09T12:42:31;10.63;;;5.65;;
26375;SDS011;30544;42.196;24.336;2022-09-09T12:45:00;68.28;;;27.60;;
26375;SDS011;30544;42.196;24.336;2022-09-09T12:47:38;11.38;;;6.22;;
26375;SDS011;30544;42.196;24.336;2022-09-09T12:50:17;11.20;;;6.00;;
26375;SDS011;30544;42.196;24.336;2022-09-09T12:52:46;12.88;;;6.05;;
26375;SDS011;30544;42.196;24.336;2022-09-09T12:55:16;13.52;;;6.00;;
26375;SDS011;30544;42.196;24.336;2022-09-09T12:57:46;13.85;;;5.88;;
26375;SDS011;30544;42.196;24.336;2022-09-09T13:00:17;21.02;;;5.90;;
26375;SDS011;30544;42.196;24.336;2022-09-09T13:02:49;13.15;;;5.70;;
26375;SDS011;30544;42.196;24.336;2022-09-09T13:05:20;15.20;;;5.20;;
26375;SDS011;30544;42.196;24.336;2022-09-09T13:07:49;7.30;;;4.95;;
26375;SDS011;30544;42.196;24.336;2022-09-09T13:10:19;9.43;;;5.10;;
26375;SDS011;30544;42.196;24.336;2022-09-09T13:12:52;14.07;;;6.60;;
26375;SDS011;30544;42.196;24.336;2022-09-09T13:15:19;13.82;;;7.10;;
26375;SDS011;30544;42.196;24.336;2022-09-09T13:17:52;17.55;;;7.00;;
26375;SDS011;30544;42.196;24.336;2022-09-09T13:20:22;11.82;;;6.65;;
26375;SDS011;30544;42.196;24.336;2022-09-09T13:22:51;12.10;;;5.93;;
26375;SDS011;30544;42.196;24.336;2022-09-09T13:25:22;14.10;;;6.15;;
26375;SDS011;30544;42.196;24.336;2022-09-09T13:27:52;12.80;;;7.30;;
26375;SDS011;30544;42.196;24.336;2022-09-09T13:30:22;9.70;;;5.80;;
26375;SDS011;30544;42.196;24.336;2022-09-09T13:33:01;11.77;;;6.90;;
26375;SDS011;30544;42.196;24.336;2022-09-09T13:35:31;12.15;;;6.40;;
26375;SDS011;30544;42.196;24.336;2022-09-09T13:37:59;13.93;;;6.32;;
26375;SDS011;30544;42.196;24.336;2022-09-09T13:40:35;16.80;;;6.70;;
26375;SDS011;30544;42.196;24.336;2022-09-09T13:43:01;12.45;;;6.30;;
26375;SDS011;30544;42.196;24.336;2022-09-09T13:45:30;10.20;;;5.63;;
26375;SDS011;30544;42.196;24.336;2022-09-09T13:47:59;12.30;;;5.68;;
26375;SDS011;30544;42.196;24.336;2022-09-09T13:50:36;15.05;;;6.32;;
26375;SDS011;30544;42.196;24.336;2022-09-09T13:53:03;11.60;;;6.43;;
26375;SDS011;30544;42.196;24.336;2022-09-09T13:55:30;11.20;;;6.30;;
26375;SDS011;30544;42.196;24.336;2022-09-09T13:57:57;9.75;;;5.80;;
26375;SDS011;30544;42.196;24.336;2022-09-09T14:00:26;14.23;;;5.80;;
26375;SDS011;30544;42.196;24.336;2022-09-09T14:02:55;10.77;;;5.75;;
26375;SDS011;30544;42.196;24.336;2022-09-09T14:05:21;18.05;;;6.25;;
26375;SDS011;30544;42.196;24.336;2022-09-09T14:07:50;15.13;;;5.47;;
26375;SDS011;30544;42.196;24.336;2022-09-09T14:10:17;11.65;;;5.40;;
26375;SDS011;30544;42.196;24.336;2022-09-09T14:12:44;16.17;;;6.43;;
26375;SDS011;30544;42.196;24.336;2022-09-09T14:15:11;14.95;;;6.95;;
26375;SDS011;30544;42.196;24.336;2022-09-09T14:17:39;14.23;;;6.55;;
26375;SDS011;30544;42.196;24.336;2022-09-09T14:20:06;10.93;;;5.85;;
26375;SDS011;30544;42.196;24.336;2022-09-09T14:22:35;19.35;;;7.20;;
26375;SDS011;30544;42.196;24.336;2022-09-09T14:25:06;15.70;;;6.82;;
26375;SDS011;30544;42.196;24.336;2022-09-09T14:27:33;17.42;;;7.72;;
26375;SDS011;30544;42.196;24.336;2022-09-09T14:30:00;17.83;;;7.00;;
26375;SDS011;30544;42.196;24.336;2022-09-09T14:32:27;15.15;;;8.43;;
26375;SDS011;30544;42.196;24.336;2022-09-09T14:34:54;20.77;;;7.75;;
26375;SDS011;30544;42.196;24.336;2022-09-09T14:37:21;81.05;;;33.95;;
26375;SDS011;30544;42.196;24.336;2022-09-09T14:39:49;21.77;;;11.48;;
26375;SDS011;30544;42.196;24.336;2022-09-09T14:42:17;35.33;;;13.00;;
26375;SDS011;30544;42.196;24.336;2022-09-09T14:44:44;52.05;;;21.73;;
26375;SDS011;30544;42.196;24.336;2022-09-09T14:47:12;17.05;;;8.05;;
26375;SDS011;30544;42.196;24.336;2022-09-09T14:49:39;17.73;;;7.53;;